createdAt,value
2023-11-06T00:01:26.853Z,7.50
2023-11-06T00:03:56.967Z,7.50
2023-11-06T00:06:29.842Z,9.10
2023-11-06T00:09:00.311Z,7.50
2023-11-06T00:11:30.650Z,7.50
2023-11-06T00:14:00.800Z,7.50
2023-11-06T00:16:31.061Z,7.60
2023-11-06T00:19:01.254Z,7.80
2023-11-06T00:21:33.901Z,7.60
2023-11-06T00:24:03.959Z,7.50
2023-11-06T00:26:34.149Z,7.50
2023-11-06T00:29:04.800Z,7.60
2023-11-06T00:31:41.839Z,7.60
2023-11-06T00:34:12.061Z,7.60
2023-11-06T00:36:44.780Z,7.50
2023-11-06T00:39:15.258Z,7.60
2023-11-06T00:41:45.475Z,7.60
2023-11-06T00:44:15.625Z,7.50
2023-11-06T00:54:34.417Z,7.60
2023-11-06T00:57:04.574Z,7.70
2023-11-06T00:59:34.623Z,7.70
2023-11-06T01:02:04.865Z,7.60
2023-11-06T01:04:35.038Z,7.70
2023-11-06T01:07:05.246Z,7.70
2023-11-06T01:09:38.401Z,7.60
2023-11-06T01:12:10.570Z,7.70
2023-11-06T01:14:40.703Z,7.60
2023-11-06T01:17:13.667Z,7.70
2023-11-06T01:19:43.956Z,7.80
2023-11-06T01:22:15.369Z,7.70
2023-11-06T01:24:48.239Z,8.10
2023-11-06T01:27:20.162Z,7.70
2023-11-06T01:29:51.768Z,7.70
2023-11-06T01:32:22.290Z,7.70
2023-11-06T01:34:52.504Z,7.70
2023-11-06T01:37:22.605Z,7.60
2023-11-06T01:39:55.630Z,7.70
2023-11-06T01:42:27.917Z,7.60
2023-11-06T01:44:59.223Z,7.60
2023-11-06T01:47:29.478Z,7.60
2023-11-06T01:50:00.602Z,7.60
2023-11-06T01:52:31.541Z,7.60
2023-11-06T01:55:05.737Z,7.60
2023-11-06T01:57:35.878Z,7.60
2023-11-06T02:00:07.539Z,7.60
2023-11-06T02:02:46.073Z,7.50
2023-11-06T02:05:16.798Z,7.40
2023-11-06T02:07:47.606Z,7.40
2023-11-06T02:10:20.584Z,7.30
2023-11-06T02:12:51.110Z,7.30
2023-11-06T02:15:21.730Z,7.20
2023-11-06T02:17:51.909Z,7.30
2023-11-06T02:20:22.336Z,7.20
2023-11-06T02:22:55.983Z,7.20
2023-11-06T02:25:28.799Z,7.20
2023-11-06T02:27:59.527Z,7.20
2023-11-06T02:30:29.709Z,7.20
2023-11-06T02:32:59.938Z,7.20
2023-11-06T02:35:30.194Z,7.20
2023-11-06T02:38:00.357Z,7.20
2023-11-06T02:40:33.048Z,7.20
2023-11-06T02:43:03.420Z,7.20
2023-11-06T02:45:33.574Z,7.20
2023-11-06T02:48:03.858Z,7.20
2023-11-06T02:50:34.448Z,7.10
2023-11-06T02:53:05.279Z,7.00
2023-11-06T02:55:38.244Z,7.00
2023-11-06T02:58:08.383Z,7.00
2023-11-06T03:00:38.798Z,6.90
2023-11-06T03:03:08.958Z,7.00
2023-11-06T03:05:39.289Z,6.90
2023-11-06T03:08:09.450Z,7.00
2023-11-06T03:10:42.374Z,7.00
2023-11-06T03:13:13.195Z,7.00
2023-11-06T03:15:43.399Z,7.00
2023-11-06T03:18:14.033Z,7.00
2023-11-06T03:20:44.214Z,6.90
2023-11-06T03:23:14.607Z,6.90
2023-11-06T03:25:47.347Z,6.90
2023-11-06T03:28:17.547Z,6.90
2023-11-06T03:30:48.036Z,6.90
2023-11-06T03:33:18.235Z,6.90
2023-11-06T03:35:49.184Z,6.90
2023-11-06T03:38:19.999Z,6.90
2023-11-06T03:40:52.895Z,6.80
2023-11-06T03:43:23.361Z,6.80
2023-11-06T03:45:54.149Z,6.90
2023-11-06T03:48:24.447Z,6.80
2023-11-06T03:50:54.772Z,6.80
2023-11-06T03:53:25.140Z,6.80
2023-11-06T03:55:57.956Z,6.80
2023-11-06T03:58:28.256Z,6.80
2023-11-06T04:00:58.358Z,6.80
2023-11-06T04:03:28.518Z,6.80
2023-11-06T04:06:00.444Z,6.80
2023-11-06T04:08:31.359Z,6.70
2023-11-06T04:11:04.882Z,6.70
2023-11-06T04:13:35.022Z,6.70
2023-11-06T04:16:05.192Z,6.70
2023-11-06T04:18:35.302Z,6.80
2023-11-06T04:21:05.529Z,6.80
2023-11-06T04:23:35.890Z,6.80
2023-11-06T04:26:08.567Z,6.80
2023-11-06T04:28:38.820Z,6.80
2023-11-06T04:31:09.574Z,6.70
2023-11-06T04:33:40.433Z,6.70
2023-11-06T04:36:11.684Z,6.70
2023-11-06T04:38:41.801Z,6.70
2023-11-06T04:41:14.586Z,6.70
2023-11-06T04:43:44.775Z,6.80
2023-11-06T04:46:14.945Z,6.70
2023-11-06T04:48:45.046Z,6.70
2023-11-06T04:51:15.214Z,6.70
2023-11-06T04:53:45.278Z,6.60
2023-11-06T04:56:18.029Z,6.60
2023-11-06T04:58:48.301Z,6.60
2023-11-06T05:01:20.488Z,6.70
2023-11-06T05:03:50.564Z,6.60
2023-11-06T05:06:20.780Z,6.60
2023-11-06T05:08:51.032Z,6.60
2023-11-06T05:11:23.777Z,6.70
2023-11-06T05:13:55.841Z,6.70
2023-11-06T05:16:26.108Z,6.80
2023-11-06T05:18:56.165Z,6.80
2023-11-06T05:21:27.083Z,6.90
2023-11-06T05:23:57.286Z,6.90
2023-11-06T05:26:30.009Z,6.90
2023-11-06T05:29:01.313Z,7.00
2023-11-06T05:31:31.507Z,7.00
2023-11-06T05:34:01.937Z,7.10
2023-11-06T05:36:32.269Z,7.10
2023-11-06T05:39:02.410Z,7.10
2023-11-06T05:41:35.829Z,7.10
2023-11-06T05:44:06.314Z,7.10
2023-11-06T05:46:36.425Z,7.30
2023-11-06T05:49:06.508Z,7.10
2023-11-06T05:51:36.711Z,7.10
2023-11-06T05:54:07.413Z,7.10
2023-11-06T05:56:40.091Z,7.10
2023-11-06T05:59:10.765Z,7.20
2023-11-06T06:01:40.888Z,7.20
2023-11-06T06:04:11.019Z,7.20
2023-11-06T06:06:41.178Z,7.10
2023-11-06T06:09:11.377Z,7.10
2023-11-06T06:11:45.671Z,7.10
2023-11-06T06:14:15.952Z,7.10
2023-11-06T06:16:46.263Z,7.10
2023-11-06T06:19:16.392Z,7.00
2023-11-06T06:21:46.622Z,7.00
2023-11-06T06:24:17.920Z,7.00
2023-11-06T06:26:50.764Z,7.10
2023-11-06T06:29:20.909Z,7.00
2023-11-06T06:31:54.883Z,6.90
2023-11-06T06:34:25.696Z,6.90
2023-11-06T06:36:56.174Z,6.80
2023-11-06T06:39:26.281Z,6.80
2023-11-06T06:41:58.969Z,6.70
2023-11-06T06:44:29.213Z,6.60
2023-11-06T06:47:00.180Z,6.60
2023-11-06T06:49:30.305Z,6.60
2023-11-06T06:52:00.346Z,6.70
2023-11-06T06:54:30.422Z,6.60
2023-11-06T06:57:03.650Z,6.70
2023-11-06T06:59:35.456Z,6.70
2023-11-06T07:02:05.803Z,6.70
2023-11-06T07:04:38.526Z,6.80
2023-11-06T07:07:08.727Z,6.80
2023-11-06T07:09:39.455Z,6.80
2023-11-06T07:12:14.158Z,6.80
2023-11-06T09:51:19.049Z,10.00
2023-11-06T10:19:14.772Z,10.40
2023-11-06T11:02:44.527Z,12.40
